sensor_id;sensor_type;location;lat;lon;timestamp;P1;durP1;ratioP1;P2;durP2;ratioP2
57155;SDS011;43023;59.928;10.682;2023-04-03T00:01:38;4.63;;;1.30;;
57155;SDS011;43023;59.928;10.682;2023-04-03T00:04:04;1.95;;;0.90;;
57155;SDS011;43023;59.928;10.682;2023-04-03T00:06:31;1.35;;;0.77;;
57155;SDS011;43023;59.928;10.682;2023-04-03T00:08:57;1.80;;;0.93;;
57155;SDS011;43023;59.928;10.682;2023-04-03T00:11:23;3.83;;;1.38;;
57155;SDS011;43023;59.928;10.682;2023-04-03T00:13:50;2.38;;;0.85;;
57155;SDS011;43023;59.928;10.682;2023-04-03T00:16:16;3.92;;;1.13;;
57155;SDS011;43023;59.928;10.682;2023-04-03T00:18:42;4.40;;;1.27;;
57155;SDS011;43023;59.928;10.682;2023-04-03T00:21:09;4.05;;;1.20;;
57155;SDS011;43023;59.928;10.682;2023-04-03T00:23:37;3.53;;;1.20;;
57155;SDS011;43023;59.928;10.682;2023-04-03T00:26:03;2.08;;;0.90;;
57155;SDS011;43023;59.928;10.682;2023-04-03T00:28:29;3.42;;;0.63;;
57155;SDS011;43023;59.928;10.682;2023-04-03T00:30:56;2.33;;;0.85;;
57155;SDS011;43023;59.928;10.682;2023-04-03T00:33:22;2.55;;;0.80;;
57155;SDS011;43023;59.928;10.682;2023-04-03T00:35:49;5.43;;;0.85;;
57155;SDS011;43023;59.928;10.682;2023-04-03T00:38:15;2.80;;;0.60;;
57155;SDS011;43023;59.928;10.682;2023-04-03T00:40:43;6.03;;;0.80;;
57155;SDS011;43023;59.928;10.682;2023-04-03T00:43:23;2.58;;;0.90;;
57155;SDS011;43023;59.928;10.682;2023-04-03T00:45:50;3.88;;;1.20;;
57155;SDS011;43023;59.928;10.682;2023-04-03T00:48:18;1.77;;;0.82;;
57155;SDS011;43023;59.928;10.682;2023-04-03T00:50:45;1.52;;;0.68;;
57155;SDS011;43023;59.928;10.682;2023-04-03T00:53:13;1.58;;;0.75;;
57155;SDS011;43023;59.928;10.682;2023-04-03T00:55:42;4.43;;;1.20;;
57155;SDS011;43023;59.928;10.682;2023-04-03T00:58:08;2.03;;;0.80;;
57155;SDS011;43023;59.928;10.682;2023-04-03T01:00:36;3.42;;;0.68;;
57155;SDS011;43023;59.928;10.682;2023-04-03T01:03:03;3.53;;;0.57;;
57155;SDS011;43023;59.928;10.682;2023-04-03T01:05:29;3.88;;;0.80;;
57155;SDS011;43023;59.928;10.682;2023-04-03T01:07:55;2.20;;;0.90;;
57155;SDS011;43023;59.928;10.682;2023-04-03T01:10:22;3.08;;;0.70;;
57155;SDS011;43023;59.928;10.682;2023-04-03T01:12:50;3.05;;;0.63;;
57155;SDS011;43023;59.928;10.682;2023-04-03T01:15:18;6.15;;;0.73;;
57155;SDS011;43023;59.928;10.682;2023-04-03T01:22:58;0.93;;;0.47;;
57155;SDS011;43023;59.928;10.682;2023-04-03T01:25:25;1.10;;;0.57;;
57155;SDS011;43023;59.928;10.682;2023-04-03T01:27:51;1.13;;;0.80;;
57155;SDS011;43023;59.928;10.682;2023-04-03T01:30:18;3.65;;;0.80;;
57155;SDS011;43023;59.928;10.682;2023-04-03T01:32:45;2.00;;;1.13;;
57155;SDS011;43023;59.928;10.682;2023-04-03T01:35:11;4.10;;;0.82;;
57155;SDS011;43023;59.928;10.682;2023-04-03T01:37:38;2.33;;;0.63;;
57155;SDS011;43023;59.928;10.682;2023-04-03T01:40:04;1.60;;;0.82;;
57155;SDS011;43023;59.928;10.682;2023-04-03T01:42:32;1.27;;;0.47;;
57155;SDS011;43023;59.928;10.682;2023-04-03T01:44:58;2.70;;;0.60;;
57155;SDS011;43023;59.928;10.682;2023-04-03T01:47:24;1.58;;;0.50;;
57155;SDS011;43023;59.928;10.682;2023-04-03T01:49:50;0.40;;;0.40;;
57155;SDS011;43023;59.928;10.682;2023-04-03T01:52:16;2.08;;;0.65;;
57155;SDS011;43023;59.928;10.682;2023-04-03T01:54:42;0.65;;;0.55;;
57155;SDS011;43023;59.928;10.682;2023-04-03T01:57:08;0.60;;;0.30;;
57155;SDS011;43023;59.928;10.682;2023-04-03T01:59:35;4.22;;;0.73;;
57155;SDS011;43023;59.928;10.682;2023-04-03T02:02:01;1.85;;;0.70;;
57155;SDS011;43023;59.928;10.682;2023-04-03T02:04:27;1.08;;;0.60;;
57155;SDS011;43023;59.928;10.682;2023-04-03T02:06:53;0.80;;;0.60;;
57155;SDS011;43023;59.928;10.682;2023-04-03T02:09:19;0.98;;;0.45;;
57155;SDS011;43023;59.928;10.682;2023-04-03T02:11:45;1.33;;;0.65;;
57155;SDS011;43023;59.928;10.682;2023-04-03T02:14:11;0.63;;;0.45;;
57155;SDS011;43023;59.928;10.682;2023-04-03T02:16:38;0.57;;;0.25;;
57155;SDS011;43023;59.928;10.682;2023-04-03T02:19:04;1.42;;;0.40;;
57155;SDS011;43023;59.928;10.682;2023-04-03T02:21:30;0.30;;;0.30;;
57155;SDS011;43023;59.928;10.682;2023-04-03T02:23:56;0.55;;;0.40;;
57155;SDS011;43023;59.928;10.682;2023-04-03T02:26:22;2.55;;;0.50;;
57155;SDS011;43023;59.928;10.682;2023-04-03T02:28:48;0.45;;;0.28;;
57155;SDS011;43023;59.928;10.682;2023-04-03T02:31:14;0.90;;;0.38;;
57155;SDS011;43023;59.928;10.682;2023-04-03T02:33:41;0.82;;;0.60;;
57155;SDS011;43023;59.928;10.682;2023-04-03T02:36:07;1.95;;;0.60;;
57155;SDS011;43023;59.928;10.682;2023-04-03T02:38:34;1.20;;;0.52;;
57155;SDS011;43023;59.928;10.682;2023-04-03T02:41:04;0.93;;;0.40;;
57155;SDS011;43023;59.928;10.682;2023-04-03T02:43:30;0.98;;;0.50;;
57155;SDS011;43023;59.928;10.682;2023-04-03T02:45:56;1.23;;;0.60;;
57155;SDS011;43023;59.928;10.682;2023-04-03T02:48:22;1.45;;;0.32;;
57155;SDS011;43023;59.928;10.682;2023-04-03T02:50:49;0.40;;;0.40;;
57155;SDS011;43023;59.928;10.682;2023-04-03T02:53:15;1.33;;;0.70;;
57155;SDS011;43023;59.928;10.682;2023-04-03T02:55:41;0.43;;;0.32;;
57155;SDS011;43023;59.928;10.682;2023-04-03T02:58:07;0.90;;;0.40;;
57155;SDS011;43023;59.928;10.682;2023-04-03T03:00:33;2.50;;;0.40;;
57155;SDS011;43023;59.928;10.682;2023-04-03T03:02:59;2.05;;;0.50;;
57155;SDS011;43023;59.928;10.682;2023-04-03T03:05:26;1.05;;;0.30;;
57155;SDS011;43023;59.928;10.682;2023-04-03T03:07:52;1.90;;;0.50;;
57155;SDS011;43023;59.928;10.682;2023-04-03T03:10:19;0.38;;;0.30;;
57155;SDS011;43023;59.928;10.682;2023-04-03T03:12:46;0.50;;;0.40;;
57155;SDS011;43023;59.928;10.682;2023-04-03T03:15:12;0.80;;;0.52;;
57155;SDS011;43023;59.928;10.682;2023-04-03T03:17:38;0.30;;;0.20;;
57155;SDS011;43023;59.928;10.682;2023-04-03T03:20:04;0.60;;;0.22;;
57155;SDS011;43023;59.928;10.682;2023-04-03T03:22:31;0.28;;;0.28;;
57155;SDS011;43023;59.928;10.682;2023-04-03T03:24:58;0.50;;;0.47;;
57155;SDS011;43023;59.928;10.682;2023-04-03T03:27:24;0.95;;;0.45;;
57155;SDS011;43023;59.928;10.682;2023-04-03T03:29:50;4.80;;;0.40;;
57155;SDS011;43023;59.928;10.682;2023-04-03T03:32:16;0.73;;;0.40;;
57155;SDS011;43023;59.928;10.682;2023-04-03T03:34:42;2.92;;;0.50;;
57155;SDS011;43023;59.928;10.682;2023-04-03T03:37:08;1.17;;;0.40;;
57155;SDS011;43023;59.928;10.682;2023-04-03T03:39:34;0.68;;;0.40;;
57155;SDS011;43023;59.928;10.682;2023-04-03T03:42:01;1.15;;;0.47;;
57155;SDS011;43023;59.928;10.682;2023-04-03T03:44:27;1.63;;;0.45;;
57155;SDS011;43023;59.928;10.682;2023-04-03T03:46:54;1.17;;;0.30;;
57155;SDS011;43023;59.928;10.682;2023-04-03T03:49:20;1.92;;;0.47;;
57155;SDS011;43023;59.928;10.682;2023-04-03T03:51:46;0.47;;;0.47;;
57155;SDS011;43023;59.928;10.682;2023-04-03T03:54:12;0.25;;;0.25;;
57155;SDS011;43023;59.928;10.682;2023-04-03T03:56:39;0.95;;;0.43;;
57155;SDS011;43023;59.928;10.682;2023-04-03T03:59:05;0.17;;;0.17;;
57155;SDS011;43023;59.928;10.682;2023-04-03T04:01:31;0.98;;;0.40;;
57155;SDS011;43023;59.928;10.682;2023-04-03T04:03:57;0.40;;;0.40;;
57155;SDS011;43023;59.928;10.682;2023-04-03T04:06:23;1.35;;;0.45;;
57155;SDS011;43023;59.928;10.682;2023-04-03T04:08:50;0.75;;;0.63;;
57155;SDS011;43023;59.928;10.682;2023-04-03T04:11:16;0.70;;;0.40;;
57155;SDS011;43023;59.928;10.682;2023-04-03T04:13:42;0.88;;;0.40;;
57155;SDS011;43023;59.928;10.682;2023-04-03T04:16:08;0.47;;;0.40;;
57155;SDS011;43023;59.928;10.682;2023-04-03T04:18:34;0.50;;;0.30;;
57155;SDS011;43023;59.928;10.682;2023-04-03T04:21:01;1.40;;;0.40;;
57155;SDS011;43023;59.928;10.682;2023-04-03T04:23:27;1.58;;;0.40;;
57155;SDS011;43023;59.928;10.682;2023-04-03T04:25:53;0.60;;;0.60;;
57155;SDS011;43023;59.928;10.682;2023-04-03T04:28:19;1.02;;;0.52;;
57155;SDS011;43023;59.928;10.682;2023-04-03T04:30:45;1.98;;;0.50;;
57155;SDS011;43023;59.928;10.682;2023-04-03T04:33:11;0.82;;;0.38;;
57155;SDS011;43023;59.928;10.682;2023-04-03T04:35:39;0.93;;;0.43;;
57155;SDS011;43023;59.928;10.682;2023-04-03T04:38:05;1.02;;;0.45;;
57155;SDS011;43023;59.928;10.682;2023-04-03T04:40:31;2.47;;;0.50;;
57155;SDS011;43023;59.928;10.682;2023-04-03T04:42:57;3.78;;;0.82;;
57155;SDS011;43023;59.928;10.682;2023-04-03T04:45:23;2.17;;;0.30;;
57155;SDS011;43023;59.928;10.682;2023-04-03T04:47:49;3.60;;;0.40;;
57155;SDS011;43023;59.928;10.682;2023-04-03T04:50:17;1.70;;;0.50;;
57155;SDS011;43023;59.928;10.682;2023-04-03T04:52:43;1.52;;;0.45;;
57155;SDS011;43023;59.928;10.682;2023-04-03T04:55:09;2.58;;;0.30;;
57155;SDS011;43023;59.928;10.682;2023-04-03T04:57:36;2.35;;;0.50;;
57155;SDS011;43023;59.928;10.682;2023-04-03T05:00:03;0.35;;;0.35;;
57155;SDS011;43023;59.928;10.682;2023-04-03T05:02:30;1.60;;;0.47;;
57155;SDS011;43023;59.928;10.682;2023-04-03T05:04:56;2.92;;;0.50;;
57155;SDS011;43023;59.928;10.682;2023-04-03T05:07:22;4.82;;;0.40;;
57155;SDS011;43023;59.928;10.682;2023-04-03T05:09:48;0.77;;;0.40;;
57155;SDS011;43023;59.928;10.682;2023-04-03T05:12:14;0.40;;;0.30;;
57155;SDS011;43023;59.928;10.682;2023-04-03T05:14:40;0.73;;;0.20;;
57155;SDS011;43023;59.928;10.682;2023-04-03T05:17:06;0.30;;;0.30;;
57155;SDS011;43023;59.928;10.682;2023-04-03T05:19:33;2.65;;;0.30;;
57155;SDS011;43023;59.928;10.682;2023-04-03T05:21:59;0.95;;;0.30;;
57155;SDS011;43023;59.928;10.682;2023-04-03T05:24:25;0.68;;;0.25;;
57155;SDS011;43023;59.928;10.682;2023-04-03T05:26:51;1.38;;;0.40;;
57155;SDS011;43023;59.928;10.682;2023-04-03T05:29:17;3.88;;;0.40;;
57155;SDS011;43023;59.928;10.682;2023-04-03T05:31:43;1.90;;;0.57;;
57155;SDS011;43023;59.928;10.682;2023-04-03T05:34:09;2.58;;;0.40;;
57155;SDS011;43023;59.928;10.682;2023-04-03T05:36:35;4.03;;;0.88;;
57155;SDS011;43023;59.928;10.682;2023-04-03T05:39:02;1.13;;;0.38;;
57155;SDS011;43023;59.928;10.682;2023-04-03T05:41:28;3.50;;;0.43;;
57155;SDS011;43023;59.928;10.682;2023-04-03T05:43:55;3.78;;;0.40;;
57155;SDS011;43023;59.928;10.682;2023-04-03T05:46:21;3.13;;;0.40;;
57155;SDS011;43023;59.928;10.682;2023-04-03T05:48:47;2.22;;;0.73;;
57155;SDS011;43023;59.928;10.682;2023-04-03T05:51:15;4.25;;;0.60;;
57155;SDS011;43023;59.928;10.682;2023-04-03T05:53:41;2.97;;;0.80;;
57155;SDS011;43023;59.928;10.682;2023-04-03T05:56:09;2.83;;;0.80;;
57155;SDS011;43023;59.928;10.682;2023-04-03T05:58:35;4.03;;;0.82;;
57155;SDS011;43023;59.928;10.682;2023-04-03T06:01:01;2.03;;;0.20;;
57155;SDS011;43023;59.928;10.682;2023-04-03T06:03:27;0.98;;;0.40;;
57155;SDS011;43023;59.928;10.682;2023-04-03T06:05:53;3.05;;;0.50;;
57155;SDS011;43023;59.928;10.682;2023-04-03T06:08:20;1.35;;;0.60;;
57155;SDS011;43023;59.928;10.682;2023-04-03T06:10:46;1.85;;;0.60;;
57155;SDS011;43023;59.928;10.682;2023-04-03T06:13:12;2.05;;;0.30;;
57155;SDS011;43023;59.928;10.682;2023-04-03T06:15:39;2.40;;;0.47;;
57155;SDS011;43023;59.928;10.682;2023-04-03T06:18:05;1.77;;;0.63;;
57155;SDS011;43023;59.928;10.682;2023-04-03T06:20:31;5.47;;;0.82;;
57155;SDS011;43023;59.928;10.682;2023-04-03T06:22:58;1.95;;;1.15;;
57155;SDS011;43023;59.928;10.682;2023-04-03T06:25:24;4.20;;;1.00;;
57155;SDS011;43023;59.928;10.682;2023-04-03T06:27:50;3.88;;;1.25;;
57155;SDS011;43023;59.928;10.682;2023-04-03T06:30:16;2.53;;;1.05;;
57155;SDS011;43023;59.928;10.682;2023-04-03T06:32:42;4.43;;;1.40;;
57155;SDS011;43023;59.928;10.682;2023-04-03T06:35:09;2.33;;;0.93;;
57155;SDS011;43023;59.928;10.682;2023-04-03T06:37:35;1.30;;;0.90;;
57155;SDS011;43023;59.928;10.682;2023-04-03T06:40:02;4.95;;;1.10;;
57155;SDS011;43023;59.928;10.682;2023-04-03T06:42:28;4.05;;;1.08;;
57155;SDS011;43023;59.928;10.682;2023-04-03T06:44:54;2.03;;;1.15;;
57155;SDS011;43023;59.928;10.682;2023-04-03T06:47:20;3.28;;;1.08;;
57155;SDS011;43023;59.928;10.682;2023-04-03T06:49:46;1.38;;;1.00;;
57155;SDS011;43023;59.928;10.682;2023-04-03T06:52:13;4.70;;;1.10;;
57155;SDS011;43023;59.928;10.682;2023-04-03T06:54:39;7.43;;;1.02;;
57155;SDS011;43023;59.928;10.682;2023-04-03T06:57:06;2.63;;;1.42;;
57155;SDS011;43023;59.928;10.682;2023-04-03T06:59:32;2.05;;;0.80;;
57155;SDS011;43023;59.928;10.682;2023-04-03T07:01:58;3.83;;;1.00;;
57155;SDS011;43023;59.928;10.682;2023-04-03T07:04:25;13.68;;;1.55;;
57155;SDS011;43023;59.928;10.682;2023-04-03T07:06:51;8.30;;;1.10;;
57155;SDS011;43023;59.928;10.682;2023-04-03T07:09:17;4.95;;;1.00;;
57155;SDS011;43023;59.928;10.682;2023-04-03T07:11:43;1.77;;;1.20;;
57155;SDS011;43023;59.928;10.682;2023-04-03T07:14:10;4.25;;;1.15;;
57155;SDS011;43023;59.928;10.682;2023-04-03T07:16:36;11.15;;;1.70;;
57155;SDS011;43023;59.928;10.682;2023-04-03T07:19:02;5.45;;;1.00;;
57155;SDS011;43023;59.928;10.682;2023-04-03T07:21:28;2.67;;;0.75;;
57155;SDS011;43023;59.928;10.682;2023-04-03T07:23:55;2.28;;;0.85;;
57155;SDS011;43023;59.928;10.682;2023-04-03T07:26:21;5.45;;;0.98;;
57155;SDS011;43023;59.928;10.682;2023-04-03T07:28:48;4.40;;;0.90;;
57155;SDS011;43023;59.928;10.682;2023-04-03T07:31:15;1.40;;;0.70;;
57155;SDS011;43023;59.928;10.682;2023-04-03T07:33:42;2.72;;;0.70;;
57155;SDS011;43023;59.928;10.682;2023-04-03T07:36:08;2.70;;;0.65;;
57155;SDS011;43023;59.928;10.682;2023-04-03T07:38:35;5.28;;;1.00;;
57155;SDS011;43023;59.928;10.682;2023-04-03T07:41:02;2.38;;;1.00;;
57155;SDS011;43023;59.928;10.682;2023-04-03T07:43:28;7.80;;;1.10;;
57155;SDS011;43023;59.928;10.682;2023-04-03T07:45:55;2.53;;;0.82;;
57155;SDS011;43023;59.928;10.682;2023-04-03T07:48:22;2.15;;;0.85;;
57155;SDS011;43023;59.928;10.682;2023-04-03T07:50:48;2.35;;;0.90;;
57155;SDS011;43023;59.928;10.682;2023-04-03T07:53:14;1.52;;;0.80;;
57155;SDS011;43023;59.928;10.682;2023-04-03T07:55:41;2.20;;;0.90;;
57155;SDS011;43023;59.928;10.682;2023-04-03T07:58:10;7.82;;;1.38;;
57155;SDS011;43023;59.928;10.682;2023-04-03T08:00:37;3.50;;;1.10;;
57155;SDS011;43023;59.928;10.682;2023-04-03T08:03:04;4.95;;;1.20;;
57155;SDS011;43023;59.928;10.682;2023-04-03T08:05:31;4.28;;;0.88;;
57155;SDS011;43023;59.928;10.682;2023-04-03T08:07:57;1.05;;;0.60;;
57155;SDS011;43023;59.928;10.682;2023-04-03T08:10:23;4.88;;;0.77;;
57155;SDS011;43023;59.928;10.682;2023-04-03T08:12:49;4.45;;;1.25;;
57155;SDS011;43023;59.928;10.682;2023-04-03T08:15:16;5.97;;;1.10;;
57155;SDS011;43023;59.928;10.682;2023-04-03T08:17:42;2.28;;;1.00;;
57155;SDS011;43023;59.928;10.682;2023-04-03T08:20:09;3.40;;;0.80;;
57155;SDS011;43023;59.928;10.682;2023-04-03T08:22:35;5.20;;;0.70;;
57155;SDS011;43023;59.928;10.682;2023-04-03T08:25:01;1.60;;;0.60;;
57155;SDS011;43023;59.928;10.682;2023-04-03T08:27:28;3.97;;;0.60;;
57155;SDS011;43023;59.928;10.682;2023-04-03T08:29:54;4.07;;;0.73;;
57155;SDS011;43023;59.928;10.682;2023-04-03T08:32:21;3.15;;;0.50;;
57155;SDS011;43023;59.928;10.682;2023-04-03T08:34:48;1.23;;;0.75;;
57155;SDS011;43023;59.928;10.682;2023-04-03T08:37:14;2.65;;;0.95;;
57155;SDS011;43023;59.928;10.682;2023-04-03T08:39:41;0.57;;;0.57;;
57155;SDS011;43023;59.928;10.682;2023-04-03T08:42:33;4.00;;;0.82;;
57155;SDS011;43023;59.928;10.682;2023-04-03T08:47:29;3.15;;;1.02;;
57155;SDS011;43023;59.928;10.682;2023-04-03T08:50:05;5.03;;;0.80;;
57155;SDS011;43023;59.928;10.682;2023-04-03T08:55:02;2.00;;;1.05;;
57155;SDS011;43023;59.928;10.682;2023-04-03T08:57:36;3.72;;;0.88;;
57155;SDS011;43023;59.928;10.682;2023-04-03T09:00:06;4.13;;;1.00;;
57155;SDS011;43023;59.928;10.682;2023-04-03T09:02:49;1.17;;;0.70;;
57155;SDS011;43023;59.928;10.682;2023-04-03T09:06:00;1.27;;;0.52;;
57155;SDS011;43023;59.928;10.682;2023-04-03T09:10:37;4.05;;;0.85;;
57155;SDS011;43023;59.928;10.682;2023-04-03T09:13:06;3.50;;;0.98;;
57155;SDS011;43023;59.928;10.682;2023-04-03T09:15:37;2.03;;;1.00;;
57155;SDS011;43023;59.928;10.682;2023-04-03T09:18:05;2.75;;;1.08;;
57155;SDS011;43023;59.928;10.682;2023-04-03T09:23:14;3.40;;;0.85;;
57155;SDS011;43023;59.928;10.682;2023-04-03T09:25:42;1.85;;;0.65;;
57155;SDS011;43023;59.928;10.682;2023-04-03T09:28:09;3.22;;;0.90;;
57155;SDS011;43023;59.928;10.682;2023-04-03T09:30:35;2.05;;;0.50;;
57155;SDS011;43023;59.928;10.682;2023-04-03T09:33:02;5.00;;;1.08;;
57155;SDS011;43023;59.928;10.682;2023-04-03T09:35:30;2.35;;;0.63;;
57155;SDS011;43023;59.928;10.682;2023-04-03T09:38:00;1.70;;;0.50;;
57155;SDS011;43023;59.928;10.682;2023-04-03T09:42:57;1.23;;;0.68;;
57155;SDS011;43023;59.928;10.682;2023-04-03T09:45:25;1.52;;;0.63;;
57155;SDS011;43023;59.928;10.682;2023-04-03T09:48:08;0.60;;;0.60;;
57155;SDS011;43023;59.928;10.682;2023-04-03T09:55:52;4.50;;;1.35;;
57155;SDS011;43023;59.928;10.682;2023-04-03T09:58:25;3.40;;;0.60;;
57155;SDS011;43023;59.928;10.682;2023-04-03T10:00:59;5.55;;;0.70;;
57155;SDS011;43023;59.928;10.682;2023-04-03T10:05:52;3.42;;;0.88;;
57155;SDS011;43023;59.928;10.682;2023-04-03T10:08:24;5.45;;;1.23;;
57155;SDS011;43023;59.928;10.682;2023-04-03T10:13:33;3.78;;;0.90;;
57155;SDS011;43023;59.928;10.682;2023-04-03T10:16:01;4.47;;;0.45;;
57155;SDS011;43023;59.928;10.682;2023-04-03T10:18:44;2.42;;;0.60;;
57155;SDS011;43023;59.928;10.682;2023-04-03T10:24:02;7.28;;;0.90;;
57155;SDS011;43023;59.928;10.682;2023-04-03T10:31:59;1.55;;;0.60;;
57155;SDS011;43023;59.928;10.682;2023-04-03T10:36:56;3.47;;;0.70;;
57155;SDS011;43023;59.928;10.682;2023-04-03T10:47:20;3.10;;;1.13;;
57155;SDS011;43023;59.928;10.682;2023-04-03T10:52:17;8.15;;;0.65;;
57155;SDS011;43023;59.928;10.682;2023-04-03T10:57:18;1.00;;;0.50;;
57155;SDS011;43023;59.928;10.682;2023-04-03T10:59:48;2.38;;;0.80;;
57155;SDS011;43023;59.928;10.682;2023-04-03T11:02:28;3.20;;;0.38;;
57155;SDS011;43023;59.928;10.682;2023-04-03T11:05:03;5.57;;;0.55;;
57155;SDS011;43023;59.928;10.682;2023-04-03T11:07:33;1.50;;;0.52;;
57155;SDS011;43023;59.928;10.682;2023-04-03T11:15:32;2.78;;;0.47;;
57155;SDS011;43023;59.928;10.682;2023-04-03T11:18:00;2.28;;;0.40;;
57155;SDS011;43023;59.928;10.682;2023-04-03T11:20:28;3.28;;;0.50;;
57155;SDS011;43023;59.928;10.682;2023-04-03T11:23:01;3.25;;;0.40;;
57155;SDS011;43023;59.928;10.682;2023-04-03T11:25:29;3.25;;;0.52;;
57155;SDS011;43023;59.928;10.682;2023-04-03T11:28:04;0.43;;;0.35;;
57155;SDS011;43023;59.928;10.682;2023-04-03T11:30:48;1.70;;;0.50;;
57155;SDS011;43023;59.928;10.682;2023-04-03T11:35:49;0.93;;;0.52;;
57155;SDS011;43023;59.928;10.682;2023-04-03T11:38:18;0.65;;;0.30;;
57155;SDS011;43023;59.928;10.682;2023-04-03T11:40:47;1.65;;;0.65;;
57155;SDS011;43023;59.928;10.682;2023-04-03T11:43:24;2.67;;;1.13;;
57155;SDS011;43023;59.928;10.682;2023-04-03T11:46:04;2.17;;;0.52;;
57155;SDS011;43023;59.928;10.682;2023-04-03T11:48:52;3.67;;;0.50;;
57155;SDS011;43023;59.928;10.682;2023-04-03T11:53:46;1.35;;;0.40;;
57155;SDS011;43023;59.928;10.682;2023-04-03T11:59:37;3.40;;;0.40;;
57155;SDS011;43023;59.928;10.682;2023-04-03T12:01:51;2.90;;;0.38;;
57155;SDS011;43023;59.928;10.682;2023-04-03T12:04:18;2.58;;;0.50;;
57155;SDS011;43023;59.928;10.682;2023-04-03T12:11:58;2.95;;;0.70;;
57155;SDS011;43023;59.928;10.682;2023-04-03T12:14:25;1.48;;;0.38;;
57155;SDS011;43023;59.928;10.682;2023-04-03T12:16:52;2.47;;;0.30;;
57155;SDS011;43023;59.928;10.682;2023-04-03T12:19:37;1.33;;;0.60;;
57155;SDS011;43023;59.928;10.682;2023-04-03T12:22:14;1.00;;;0.32;;
57155;SDS011;43023;59.928;10.682;2023-04-03T12:24:42;0.40;;;0.30;;
57155;SDS011;43023;59.928;10.682;2023-04-03T12:27:22;3.20;;;0.57;;
57155;SDS011;43023;59.928;10.682;2023-04-03T12:29:54;1.23;;;0.40;;
57155;SDS011;43023;59.928;10.682;2023-04-03T12:40:28;0.70;;;0.57;;
57155;SDS011;43023;59.928;10.682;2023-04-03T12:45:23;2.92;;;0.50;;
57155;SDS011;43023;59.928;10.682;2023-04-03T12:47:53;1.52;;;0.60;;
57155;SDS011;43023;59.928;10.682;2023-04-03T12:53:47;3.10;;;0.60;;
57155;SDS011;43023;59.928;10.682;2023-04-03T12:55:42;1.42;;;0.40;;
57155;SDS011;43023;59.928;10.682;2023-04-03T12:58:15;2.08;;;0.35;;
57155;SDS011;43023;59.928;10.682;2023-04-03T13:03:19;1.25;;;0.50;;
57155;SDS011;43023;59.928;10.682;2023-04-03T13:05:47;0.70;;;0.30;;
57155;SDS011;43023;59.928;10.682;2023-04-03T13:08:13;1.48;;;0.40;;
57155;SDS011;43023;59.928;10.682;2023-04-03T13:11:14;0.98;;;0.60;;
57155;SDS011;43023;59.928;10.682;2023-04-03T13:13:33;0.70;;;0.55;;
57155;SDS011;43023;59.928;10.682;2023-04-03T13:15:59;3.25;;;0.70;;
57155;SDS011;43023;59.928;10.682;2023-04-03T13:18:32;0.40;;;0.40;;
57155;SDS011;43023;59.928;10.682;2023-04-03T13:21:01;3.15;;;0.45;;
57155;SDS011;43023;59.928;10.682;2023-04-03T13:23:28;2.88;;;0.32;;
57155;SDS011;43023;59.928;10.682;2023-04-03T13:25:56;2.53;;;0.60;;
57155;SDS011;43023;59.928;10.682;2023-04-03T13:28:26;0.70;;;0.40;;
57155;SDS011;43023;59.928;10.682;2023-04-03T13:36:31;7.13;;;0.70;;
57155;SDS011;43023;59.928;10.682;2023-04-03T13:39:03;3.17;;;0.40;;
57155;SDS011;43023;59.928;10.682;2023-04-03T13:41:31;4.10;;;0.50;;
57155;SDS011;43023;59.928;10.682;2023-04-03T13:44:14;3.45;;;0.75;;
57155;SDS011;43023;59.928;10.682;2023-04-03T13:46:40;7.57;;;0.60;;
57155;SDS011;43023;59.928;10.682;2023-04-03T13:49:58;4.70;;;0.65;;
57155;SDS011;43023;59.928;10.682;2023-04-03T13:51:52;4.07;;;0.90;;
57155;SDS011;43023;59.928;10.682;2023-04-03T13:54:20;6.72;;;0.82;;
57155;SDS011;43023;59.928;10.682;2023-04-03T13:56:52;3.08;;;0.40;;
57155;SDS011;43023;59.928;10.682;2023-04-03T14:01:46;4.97;;;0.65;;
57155;SDS011;43023;59.928;10.682;2023-04-03T14:04:20;3.15;;;0.50;;
57155;SDS011;43023;59.928;10.682;2023-04-03T14:06:46;2.33;;;0.60;;
57155;SDS011;43023;59.928;10.682;2023-04-03T14:09:13;2.65;;;0.63;;
57155;SDS011;43023;59.928;10.682;2023-04-03T14:11:40;4.35;;;0.60;;
57155;SDS011;43023;59.928;10.682;2023-04-03T14:14:27;5.75;;;0.80;;
57155;SDS011;43023;59.928;10.682;2023-04-03T14:16:56;0.85;;;0.70;;
57155;SDS011;43023;59.928;10.682;2023-04-03T14:19:27;1.77;;;0.80;;
57155;SDS011;43023;59.928;10.682;2023-04-03T14:21:54;2.50;;;0.50;;
57155;SDS011;43023;59.928;10.682;2023-04-03T14:24:21;1.15;;;0.40;;
57155;SDS011;43023;59.928;10.682;2023-04-03T14:26:48;1.98;;;0.50;;
57155;SDS011;43023;59.928;10.682;2023-04-03T14:29:15;4.53;;;0.63;;
57155;SDS011;43023;59.928;10.682;2023-04-03T14:31:42;3.55;;;0.55;;
57155;SDS011;43023;59.928;10.682;2023-04-03T14:34:10;3.05;;;0.52;;
57155;SDS011;43023;59.928;10.682;2023-04-03T14:36:36;1.50;;;0.32;;
57155;SDS011;43023;59.928;10.682;2023-04-03T14:39:03;4.35;;;0.52;;
57155;SDS011;43023;59.928;10.682;2023-04-03T14:41:29;2.38;;;0.35;;
57155;SDS011;43023;59.928;10.682;2023-04-03T14:43:55;1.77;;;0.38;;
57155;SDS011;43023;59.928;10.682;2023-04-03T14:46:23;0.98;;;0.30;;
57155;SDS011;43023;59.928;10.682;2023-04-03T14:48:50;2.05;;;0.52;;
57155;SDS011;43023;59.928;10.682;2023-04-03T14:51:16;1.17;;;0.30;;
57155;SDS011;43023;59.928;10.682;2023-04-03T14:53:43;1.80;;;0.52;;
57155;SDS011;43023;59.928;10.682;2023-04-03T14:56:20;0.85;;;0.52;;
57155;SDS011;43023;59.928;10.682;2023-04-03T14:58:47;2.33;;;0.40;;
57155;SDS011;43023;59.928;10.682;2023-04-03T15:01:15;2.53;;;0.35;;
57155;SDS011;43023;59.928;10.682;2023-04-03T15:03:41;0.77;;;0.50;;
57155;SDS011;43023;59.928;10.682;2023-04-03T15:06:11;4.93;;;0.43;;
57155;SDS011;43023;59.928;10.682;2023-04-03T15:08:37;1.45;;;0.50;;
57155;SDS011;43023;59.928;10.682;2023-04-03T15:11:06;11.27;;;0.80;;
57155;SDS011;43023;59.928;10.682;2023-04-03T15:13:32;4.38;;;0.40;;
57155;SDS011;43023;59.928;10.682;2023-04-03T15:15:58;6.15;;;0.75;;
57155;SDS011;43023;59.928;10.682;2023-04-03T15:18:25;3.78;;;0.50;;
57155;SDS011;43023;59.928;10.682;2023-04-03T15:20:52;4.30;;;0.88;;
57155;SDS011;43023;59.928;10.682;2023-04-03T15:23:18;2.95;;;0.90;;
57155;SDS011;43023;59.928;10.682;2023-04-03T15:25:45;6.25;;;1.00;;
57155;SDS011;43023;59.928;10.682;2023-04-03T15:28:16;4.88;;;0.55;;
57155;SDS011;43023;59.928;10.682;2023-04-03T15:30:44;5.55;;;0.52;;
57155;SDS011;43023;59.928;10.682;2023-04-03T15:33:10;1.98;;;0.63;;
57155;SDS011;43023;59.928;10.682;2023-04-03T15:35:36;1.88;;;0.50;;
57155;SDS011;43023;59.928;10.682;2023-04-03T15:38:02;2.88;;;0.68;;
57155;SDS011;43023;59.928;10.682;2023-04-03T15:40:28;4.05;;;0.60;;
57155;SDS011;43023;59.928;10.682;2023-04-03T15:42:54;5.35;;;0.50;;
57155;SDS011;43023;59.928;10.682;2023-04-03T15:45:20;2.53;;;0.80;;
57155;SDS011;43023;59.928;10.682;2023-04-03T15:47:46;3.15;;;0.70;;
57155;SDS011;43023;59.928;10.682;2023-04-03T15:50:12;10.13;;;0.55;;
57155;SDS011;43023;59.928;10.682;2023-04-03T15:52:39;2.70;;;0.70;;
57155;SDS011;43023;59.928;10.682;2023-04-03T15:55:05;0.77;;;0.43;;
57155;SDS011;43023;59.928;10.682;2023-04-03T15:57:31;3.20;;;0.50;;
57155;SDS011;43023;59.928;10.682;2023-04-03T15:59:57;1.75;;;0.52;;
57155;SDS011;43023;59.928;10.682;2023-04-03T16:02:23;3.90;;;0.40;;
57155;SDS011;43023;59.928;10.682;2023-04-03T16:04:53;1.05;;;0.50;;
57155;SDS011;43023;59.928;10.682;2023-04-03T16:07:19;3.58;;;0.28;;
57155;SDS011;43023;59.928;10.682;2023-04-03T16:09:45;1.10;;;0.65;;
57155;SDS011;43023;59.928;10.682;2023-04-03T16:12:11;2.90;;;0.85;;